sensor_id;sensor_type;location;lat;lon;timestamp;P1;durP1;ratioP1;P2;durP2;ratioP2
9767;SDS011;4923;52.520;13.494;2022-07-23T00:00:31;5.50;;;4.80;;
9767;SDS011;4923;52.520;13.494;2022-07-23T00:03:18;4.50;;;4.10;;
9767;SDS011;4923;52.520;13.494;2022-07-23T00:06:05;4.30;;;4.00;;
9767;SDS011;4923;52.520;13.494;2022-07-23T00:08:52;6.73;;;4.63;;
9767;SDS011;4923;52.520;13.494;2022-07-23T00:11:39;5.07;;;4.80;;
9767;SDS011;4923;52.520;13.494;2022-07-23T00:14:26;8.73;;;4.77;;
9767;SDS011;4923;52.520;13.494;2022-07-23T00:17:15;4.80;;;4.37;;
9767;SDS011;4923;52.520;13.494;2022-07-23T00:20:02;7.77;;;4.23;;
9767;SDS011;4923;52.520;13.494;2022-07-23T00:22:50;8.57;;;5.30;;
9767;SDS011;4923;52.520;13.494;2022-07-23T00:25:39;6.93;;;5.40;;
9767;SDS011;4923;52.520;13.494;2022-07-23T00:28:26;4.60;;;4.30;;
9767;SDS011;4923;52.520;13.494;2022-07-23T00:31:13;5.90;;;4.60;;
9767;SDS011;4923;52.520;13.494;2022-07-23T00:34:02;4.23;;;4.00;;
9767;SDS011;4923;52.520;13.494;2022-07-23T00:36:49;5.40;;;5.00;;
9767;SDS011;4923;52.520;13.494;2022-07-23T00:39:35;5.63;;;3.90;;
9767;SDS011;4923;52.520;13.494;2022-07-23T00:42:22;10.40;;;4.60;;
9767;SDS011;4923;52.520;13.494;2022-07-23T00:45:09;4.53;;;4.13;;
9767;SDS011;4923;52.520;13.494;2022-07-23T00:47:59;6.17;;;4.10;;
9767;SDS011;4923;52.520;13.494;2022-07-23T00:50:47;5.13;;;4.23;;
9767;SDS011;4923;52.520;13.494;2022-07-23T00:53:35;9.43;;;3.80;;
9767;SDS011;4923;52.520;13.494;2022-07-23T00:56:22;7.40;;;4.27;;
9767;SDS011;4923;52.520;13.494;2022-07-23T00:59:08;6.33;;;3.93;;
9767;SDS011;4923;52.520;13.494;2022-07-23T01:01:55;4.30;;;4.00;;
9767;SDS011;4923;52.520;13.494;2022-07-23T01:04:42;10.03;;;4.60;;
9767;SDS011;4923;52.520;13.494;2022-07-23T01:07:31;5.43;;;4.23;;
9767;SDS011;4923;52.520;13.494;2022-07-23T01:10:18;8.23;;;4.03;;
9767;SDS011;4923;52.520;13.494;2022-07-23T01:13:17;7.93;;;4.43;;
9767;SDS011;4923;52.520;13.494;2022-07-23T01:16:05;8.63;;;3.93;;
9767;SDS011;4923;52.520;13.494;2022-07-23T01:18:52;4.33;;;4.13;;
9767;SDS011;4923;52.520;13.494;2022-07-23T01:21:40;12.13;;;4.30;;
9767;SDS011;4923;52.520;13.494;2022-07-23T01:24:29;10.03;;;4.90;;
9767;SDS011;4923;52.520;13.494;2022-07-23T01:27:17;8.07;;;5.10;;
9767;SDS011;4923;52.520;13.494;2022-07-23T01:30:05;6.80;;;4.53;;
9767;SDS011;4923;52.520;13.494;2022-07-23T01:32:52;4.53;;;4.33;;
9767;SDS011;4923;52.520;13.494;2022-07-23T01:35:39;5.20;;;4.63;;
9767;SDS011;4923;52.520;13.494;2022-07-23T01:38:26;4.07;;;3.67;;
9767;SDS011;4923;52.520;13.494;2022-07-23T01:41:14;4.67;;;4.37;;
9767;SDS011;4923;52.520;13.494;2022-07-23T01:44:01;8.00;;;5.17;;
9767;SDS011;4923;52.520;13.494;2022-07-23T01:46:49;8.93;;;5.03;;
9767;SDS011;4923;52.520;13.494;2022-07-23T01:49:36;5.50;;;5.10;;
9767;SDS011;4923;52.520;13.494;2022-07-23T01:52:23;5.20;;;4.87;;
9767;SDS011;4923;52.520;13.494;2022-07-23T01:55:10;6.00;;;5.43;;
9767;SDS011;4923;52.520;13.494;2022-07-23T01:58:01;4.90;;;4.30;;
9767;SDS011;4923;52.520;13.494;2022-07-23T02:00:48;10.10;;;4.77;;
9767;SDS011;4923;52.520;13.494;2022-07-23T02:03:35;5.43;;;4.87;;
9767;SDS011;4923;52.520;13.494;2022-07-23T02:06:22;4.10;;;3.80;;
9767;SDS011;4923;52.520;13.494;2022-07-23T02:09:08;4.70;;;4.30;;
9767;SDS011;4923;52.520;13.494;2022-07-23T02:11:55;5.57;;;4.53;;
9767;SDS011;4923;52.520;13.494;2022-07-23T02:14:44;7.60;;;4.13;;
9767;SDS011;4923;52.520;13.494;2022-07-23T02:17:30;8.33;;;4.60;;
9767;SDS011;4923;52.520;13.494;2022-07-23T02:20:17;7.67;;;5.50;;
9767;SDS011;4923;52.520;13.494;2022-07-23T02:23:04;8.10;;;4.80;;
9767;SDS011;4923;52.520;13.494;2022-07-23T02:25:52;6.80;;;5.20;;
9767;SDS011;4923;52.520;13.494;2022-07-23T02:28:39;5.27;;;4.77;;
9767;SDS011;4923;52.520;13.494;2022-07-23T02:31:27;8.93;;;4.20;;
9767;SDS011;4923;52.520;13.494;2022-07-23T02:34:14;5.17;;;4.43;;
9767;SDS011;4923;52.520;13.494;2022-07-23T02:37:01;5.33;;;4.77;;
9767;SDS011;4923;52.520;13.494;2022-07-23T02:39:48;4.43;;;4.13;;
9767;SDS011;4923;52.520;13.494;2022-07-23T02:42:35;5.80;;;4.30;;
9767;SDS011;4923;52.520;13.494;2022-07-23T02:45:22;6.00;;;5.43;;
9767;SDS011;4923;52.520;13.494;2022-07-23T02:48:10;5.83;;;4.50;;
9767;SDS011;4923;52.520;13.494;2022-07-23T02:50:57;4.73;;;4.43;;
9767;SDS011;4923;52.520;13.494;2022-07-23T02:53:44;7.73;;;5.00;;
9767;SDS011;4923;52.520;13.494;2022-07-23T02:56:31;6.10;;;4.40;;
9767;SDS011;4923;52.520;13.494;2022-07-23T02:59:18;5.47;;;4.87;;
9767;SDS011;4923;52.520;13.494;2022-07-23T03:02:05;4.80;;;4.40;;
9767;SDS011;4923;52.520;13.494;2022-07-23T03:04:56;5.03;;;4.50;;
9767;SDS011;4923;52.520;13.494;2022-07-23T03:07:43;4.90;;;4.60;;
9767;SDS011;4923;52.520;13.494;2022-07-23T03:10:30;4.90;;;4.50;;
9767;SDS011;4923;52.520;13.494;2022-07-23T03:13:17;11.13;;;5.10;;
9767;SDS011;4923;52.520;13.494;2022-07-23T03:16:04;5.90;;;4.40;;
9767;SDS011;4923;52.520;13.494;2022-07-23T03:18:51;5.77;;;4.07;;
9767;SDS011;4923;52.520;13.494;2022-07-23T03:21:42;6.30;;;5.57;;
9767;SDS011;4923;52.520;13.494;2022-07-23T03:24:29;10.93;;;5.37;;
9767;SDS011;4923;52.520;13.494;2022-07-23T03:27:30;7.17;;;4.80;;
9767;SDS011;4923;52.520;13.494;2022-07-23T03:30:17;11.20;;;5.30;;
9767;SDS011;4923;52.520;13.494;2022-07-23T03:33:04;9.87;;;6.00;;
9767;SDS011;4923;52.520;13.494;2022-07-23T03:35:50;10.67;;;5.53;;
9767;SDS011;4923;52.520;13.494;2022-07-23T03:38:39;6.47;;;4.70;;
9767;SDS011;4923;52.520;13.494;2022-07-23T03:41:26;5.40;;;4.87;;
9767;SDS011;4923;52.520;13.494;2022-07-23T03:44:12;7.13;;;4.97;;
9767;SDS011;4923;52.520;13.494;2022-07-23T03:46:59;8.33;;;4.80;;
9767;SDS011;4923;52.520;13.494;2022-07-23T03:49:47;8.07;;;4.53;;
9767;SDS011;4923;52.520;13.494;2022-07-23T03:52:34;4.87;;;4.57;;
9767;SDS011;4923;52.520;13.494;2022-07-23T03:55:22;4.70;;;4.20;;
9767;SDS011;4923;52.520;13.494;2022-07-23T03:58:09;7.83;;;4.30;;
9767;SDS011;4923;52.520;13.494;2022-07-23T04:00:55;5.00;;;4.50;;
9767;SDS011;4923;52.520;13.494;2022-07-23T04:03:42;5.10;;;4.07;;
9767;SDS011;4923;52.520;13.494;2022-07-23T04:06:30;4.40;;;4.10;;
9767;SDS011;4923;52.520;13.494;2022-07-23T04:09:17;5.43;;;3.90;;
9767;SDS011;4923;52.520;13.494;2022-07-23T04:12:06;7.70;;;3.23;;
9767;SDS011;4923;52.520;13.494;2022-07-23T04:14:53;9.40;;;3.37;;
9767;SDS011;4923;52.520;13.494;2022-07-23T04:17:40;4.70;;;3.13;;
9767;SDS011;4923;52.520;13.494;2022-07-23T04:20:28;3.60;;;2.80;;
9767;SDS011;4923;52.520;13.494;2022-07-23T04:23:15;5.30;;;2.70;;
9767;SDS011;4923;52.520;13.494;2022-07-23T04:26:03;4.70;;;2.80;;
9767;SDS011;4923;52.520;13.494;2022-07-23T04:28:51;4.40;;;2.90;;
9767;SDS011;4923;52.520;13.494;2022-07-23T04:31:38;10.20;;;2.70;;
9767;SDS011;4923;52.520;13.494;2022-07-23T04:34:25;4.17;;;2.03;;
9767;SDS011;4923;52.520;13.494;2022-07-23T04:37:12;3.03;;;2.10;;
9767;SDS011;4923;52.520;13.494;2022-07-23T04:39:58;6.07;;;2.60;;
9767;SDS011;4923;52.520;13.494;2022-07-23T04:42:45;4.97;;;2.40;;
9767;SDS011;4923;52.520;13.494;2022-07-23T04:45:33;6.57;;;2.47;;
9767;SDS011;4923;52.520;13.494;2022-07-23T04:48:20;9.73;;;2.83;;
9767;SDS011;4923;52.520;13.494;2022-07-23T04:51:07;8.70;;;2.70;;
9767;SDS011;4923;52.520;13.494;2022-07-23T04:53:54;2.70;;;2.50;;
9767;SDS011;4923;52.520;13.494;2022-07-23T04:56:41;7.70;;;2.90;;
9767;SDS011;4923;52.520;13.494;2022-07-23T04:59:28;7.63;;;2.57;;
9767;SDS011;4923;52.520;13.494;2022-07-23T05:02:16;2.43;;;2.23;;
9767;SDS011;4923;52.520;13.494;2022-07-23T05:05:03;8.70;;;2.93;;
9767;SDS011;4923;52.520;13.494;2022-07-23T05:07:51;12.90;;;3.10;;
9767;SDS011;4923;52.520;13.494;2022-07-23T05:10:38;2.67;;;2.30;;
9767;SDS011;4923;52.520;13.494;2022-07-23T05:13:24;4.03;;;3.07;;
9767;SDS011;4923;52.520;13.494;2022-07-23T05:16:11;11.10;;;3.40;;
9767;SDS011;4923;52.520;13.494;2022-07-23T05:18:59;5.33;;;2.93;;
9767;SDS011;4923;52.520;13.494;2022-07-23T05:21:46;7.37;;;3.23;;
9767;SDS011;4923;52.520;13.494;2022-07-23T05:24:33;4.20;;;2.70;;
9767;SDS011;4923;52.520;13.494;2022-07-23T05:27:20;8.40;;;3.30;;
9767;SDS011;4923;52.520;13.494;2022-07-23T05:30:07;3.03;;;2.70;;
9767;SDS011;4923;52.520;13.494;2022-07-23T05:32:55;4.17;;;2.90;;
9767;SDS011;4923;52.520;13.494;2022-07-23T05:35:43;5.10;;;2.27;;
9767;SDS011;4923;52.520;13.494;2022-07-23T05:38:31;2.53;;;2.23;;
9767;SDS011;4923;52.520;13.494;2022-07-23T05:41:19;8.13;;;2.47;;
9767;SDS011;4923;52.520;13.494;2022-07-23T05:44:06;4.67;;;2.23;;
9767;SDS011;4923;52.520;13.494;2022-07-23T05:46:53;7.90;;;2.07;;
9767;SDS011;4923;52.520;13.494;2022-07-23T05:49:40;6.73;;;2.27;;
9767;SDS011;4923;52.520;13.494;2022-07-23T05:52:29;4.80;;;2.50;;
9767;SDS011;4923;52.520;13.494;2022-07-23T05:55:15;2.50;;;2.30;;
9767;SDS011;4923;52.520;13.494;2022-07-23T05:58:02;5.27;;;2.03;;
9767;SDS011;4923;52.520;13.494;2022-07-23T06:00:49;7.43;;;2.80;;
9767;SDS011;4923;52.520;13.494;2022-07-23T06:03:36;6.20;;;2.30;;
9767;SDS011;4923;52.520;13.494;2022-07-23T06:06:23;5.93;;;2.47;;
9767;SDS011;4923;52.520;13.494;2022-07-23T06:09:12;4.10;;;2.27;;
9767;SDS011;4923;52.520;13.494;2022-07-23T06:11:59;3.07;;;1.97;;
9767;SDS011;4923;52.520;13.494;2022-07-23T06:14:46;2.50;;;2.30;;
9767;SDS011;4923;52.520;13.494;2022-07-23T06:17:35;7.20;;;2.83;;
9767;SDS011;4923;52.520;13.494;2022-07-23T06:20:24;5.90;;;2.00;;
9767;SDS011;4923;52.520;13.494;2022-07-23T06:23:11;3.07;;;2.83;;
9767;SDS011;4923;52.520;13.494;2022-07-23T06:25:59;4.63;;;2.27;;
9767;SDS011;4923;52.520;13.494;2022-07-23T06:28:46;5.13;;;2.80;;
9767;SDS011;4923;52.520;13.494;2022-07-23T06:31:33;5.63;;;2.60;;
9767;SDS011;4923;52.520;13.494;2022-07-23T06:34:20;4.63;;;2.80;;
9767;SDS011;4923;52.520;13.494;2022-07-23T06:37:07;7.20;;;2.30;;
9767;SDS011;4923;52.520;13.494;2022-07-23T06:39:54;4.10;;;2.43;;
9767;SDS011;4923;52.520;13.494;2022-07-23T06:42:42;9.00;;;3.30;;
9767;SDS011;4923;52.520;13.494;2022-07-23T06:45:29;7.57;;;3.53;;
9767;SDS011;4923;52.520;13.494;2022-07-23T06:48:17;7.27;;;3.60;;
9767;SDS011;4923;52.520;13.494;2022-07-23T06:51:04;4.20;;;3.47;;
9767;SDS011;4923;52.520;13.494;2022-07-23T06:53:51;5.30;;;3.10;;
9767;SDS011;4923;52.520;13.494;2022-07-23T06:56:38;7.37;;;3.70;;
9767;SDS011;4923;52.520;13.494;2022-07-23T06:59:26;5.03;;;3.40;;
9767;SDS011;4923;52.520;13.494;2022-07-23T07:02:13;6.90;;;2.63;;
9767;SDS011;4923;52.520;13.494;2022-07-23T07:05:00;5.63;;;3.37;;
9767;SDS011;4923;52.520;13.494;2022-07-23T07:07:48;6.60;;;3.97;;
9767;SDS011;4923;52.520;13.494;2022-07-23T07:10:34;2.83;;;2.63;;
9767;SDS011;4923;52.520;13.494;2022-07-23T07:13:21;3.13;;;2.90;;
9767;SDS011;4923;52.520;13.494;2022-07-23T07:16:10;4.60;;;2.60;;
9767;SDS011;4923;52.520;13.494;2022-07-23T07:18:56;9.67;;;3.77;;
9767;SDS011;4923;52.520;13.494;2022-07-23T07:21:43;3.50;;;3.20;;
9767;SDS011;4923;52.520;13.494;2022-07-23T07:24:30;3.17;;;2.10;;
9767;SDS011;4923;52.520;13.494;2022-07-23T07:27:17;2.67;;;2.10;;
9767;SDS011;4923;52.520;13.494;2022-07-23T07:30:04;1.90;;;1.80;;
9767;SDS011;4923;52.520;13.494;2022-07-23T07:32:54;4.20;;;2.13;;
9767;SDS011;4923;52.520;13.494;2022-07-23T07:35:40;3.53;;;2.17;;
9767;SDS011;4923;52.520;13.494;2022-07-23T07:38:27;4.30;;;2.23;;
9767;SDS011;4923;52.520;13.494;2022-07-23T07:41:14;2.57;;;2.37;;
9767;SDS011;4923;52.520;13.494;2022-07-23T07:44:01;4.37;;;2.37;;
9767;SDS011;4923;52.520;13.494;2022-07-23T07:46:48;3.97;;;2.20;;
9767;SDS011;4923;52.520;13.494;2022-07-23T07:49:37;4.87;;;2.10;;
9767;SDS011;4923;52.520;13.494;2022-07-23T07:52:24;3.37;;;2.60;;
9767;SDS011;4923;52.520;13.494;2022-07-23T07:55:11;10.37;;;2.50;;
9767;SDS011;4923;52.520;13.494;2022-07-23T07:57:58;4.20;;;2.90;;
9767;SDS011;4923;52.520;13.494;2022-07-23T08:00:45;5.57;;;3.00;;
9767;SDS011;4923;52.520;13.494;2022-07-23T08:03:32;3.10;;;3.00;;
9767;SDS011;4923;52.520;13.494;2022-07-23T08:06:21;3.73;;;3.37;;
9767;SDS011;4923;52.520;13.494;2022-07-23T08:09:08;5.60;;;2.77;;
9767;SDS011;4923;52.520;13.494;2022-07-23T08:11:55;3.63;;;3.13;;
9767;SDS011;4923;52.520;13.494;2022-07-23T08:14:41;10.97;;;3.57;;
9767;SDS011;4923;52.520;13.494;2022-07-23T08:17:30;7.63;;;2.90;;
9767;SDS011;4923;52.520;13.494;2022-07-23T08:20:17;8.13;;;3.40;;
9767;SDS011;4923;52.520;13.494;2022-07-23T08:23:07;3.90;;;2.67;;
9767;SDS011;4923;52.520;13.494;2022-07-23T08:25:54;4.40;;;3.43;;
9767;SDS011;4923;52.520;13.494;2022-07-23T08:28:42;6.03;;;2.90;;
9767;SDS011;4923;52.520;13.494;2022-07-23T08:31:29;9.07;;;4.23;;
9767;SDS011;4923;52.520;13.494;2022-07-23T08:34:18;4.43;;;2.70;;
9767;SDS011;4923;52.520;13.494;2022-07-23T08:37:05;4.23;;;2.30;;
9767;SDS011;4923;52.520;13.494;2022-07-23T08:39:53;5.50;;;2.07;;
9767;SDS011;4923;52.520;13.494;2022-07-23T08:42:41;8.83;;;2.53;;
9767;SDS011;4923;52.520;13.494;2022-07-23T08:45:29;6.53;;;2.10;;
9767;SDS011;4923;52.520;13.494;2022-07-23T08:48:16;4.23;;;2.23;;
9767;SDS011;4923;52.520;13.494;2022-07-23T08:51:04;1.80;;;1.70;;
9767;SDS011;4923;52.520;13.494;2022-07-23T08:53:52;5.40;;;1.87;;
9767;SDS011;4923;52.520;13.494;2022-07-23T08:56:42;7.30;;;2.07;;
9767;SDS011;4923;52.520;13.494;2022-07-23T08:59:29;2.87;;;2.00;;
9767;SDS011;4923;52.520;13.494;2022-07-23T09:02:17;4.67;;;2.73;;
9767;SDS011;4923;52.520;13.494;2022-07-23T09:05:04;4.37;;;1.77;;
9767;SDS011;4923;52.520;13.494;2022-07-23T09:08:11;5.30;;;2.30;;
9767;SDS011;4923;52.520;13.494;2022-07-23T09:10:59;3.90;;;1.40;;
9767;SDS011;4923;52.520;13.494;2022-07-23T09:13:49;2.33;;;1.60;;
9767;SDS011;4923;52.520;13.494;2022-07-23T09:16:38;2.70;;;1.60;;
9767;SDS011;4923;52.520;13.494;2022-07-23T09:19:27;4.90;;;2.13;;
9767;SDS011;4923;52.520;13.494;2022-07-23T09:22:17;3.87;;;1.90;;
9767;SDS011;4923;52.520;13.494;2022-07-23T09:25:09;1.90;;;1.77;;
9767;SDS011;4923;52.520;13.494;2022-07-23T09:27:59;2.93;;;1.20;;
9767;SDS011;4923;52.520;13.494;2022-07-23T09:30:50;6.03;;;2.60;;
9767;SDS011;4923;52.520;13.494;2022-07-23T09:33:37;5.23;;;2.13;;
9767;SDS011;4923;52.520;13.494;2022-07-23T09:36:28;4.57;;;2.00;;
9767;SDS011;4923;52.520;13.494;2022-07-23T09:39:22;8.27;;;2.30;;
9767;SDS011;4923;52.520;13.494;2022-07-23T09:42:13;3.67;;;2.07;;
9767;SDS011;4923;52.520;13.494;2022-07-23T09:45:03;11.10;;;2.17;;
9767;SDS011;4923;52.520;13.494;2022-07-23T09:47:55;6.90;;;2.10;;
9767;SDS011;4923;52.520;13.494;2022-07-23T09:51:01;2.40;;;2.07;;
9767;SDS011;4923;52.520;13.494;2022-07-23T09:53:48;3.07;;;2.77;;
9767;SDS011;4923;52.520;13.494;2022-07-23T09:56:35;2.23;;;2.10;;
9767;SDS011;4923;52.520;13.494;2022-07-23T09:59:24;6.27;;;2.50;;
9767;SDS011;4923;52.520;13.494;2022-07-23T10:02:13;2.37;;;2.17;;
9767;SDS011;4923;52.520;13.494;2022-07-23T10:05:02;4.47;;;2.20;;
9767;SDS011;4923;52.520;13.494;2022-07-23T10:07:50;2.60;;;1.63;;
9767;SDS011;4923;52.520;13.494;2022-07-23T10:10:38;12.90;;;2.60;;
9767;SDS011;4923;52.520;13.494;2022-07-23T10:13:26;4.67;;;2.63;;
9767;SDS011;4923;52.520;13.494;2022-07-23T10:16:27;9.80;;;2.43;;
9767;SDS011;4923;52.520;13.494;2022-07-23T10:19:14;3.50;;;2.30;;
9767;SDS011;4923;52.520;13.494;2022-07-23T10:22:03;2.33;;;2.13;;
9767;SDS011;4923;52.520;13.494;2022-07-23T10:24:55;6.20;;;2.87;;
9767;SDS011;4923;52.520;13.494;2022-07-23T10:27:59;9.77;;;2.40;;
9767;SDS011;4923;52.520;13.494;2022-07-23T10:31:00;4.73;;;2.90;;
9767;SDS011;4923;52.520;13.494;2022-07-23T10:33:54;2.40;;;2.20;;
9767;SDS011;4923;52.520;13.494;2022-07-23T10:36:49;2.83;;;2.47;;
9767;SDS011;4923;52.520;13.494;2022-07-23T10:39:41;8.67;;;2.33;;
9767;SDS011;4923;52.520;13.494;2022-07-23T10:42:29;2.70;;;2.50;;
9767;SDS011;4923;52.520;13.494;2022-07-23T10:45:22;3.57;;;1.63;;
9767;SDS011;4923;52.520;13.494;2022-07-23T10:48:12;1.57;;;1.40;;
9767;SDS011;4923;52.520;13.494;2022-07-23T10:51:07;3.13;;;1.90;;
9767;SDS011;4923;52.520;13.494;2022-07-23T10:53:57;3.70;;;1.60;;
9767;SDS011;4923;52.520;13.494;2022-07-23T10:57:05;1.33;;;1.23;;
9767;SDS011;4923;52.520;13.494;2022-07-23T11:03:02;2.87;;;1.57;;
9767;SDS011;4923;52.520;13.494;2022-07-23T11:05:52;2.90;;;1.90;;
9767;SDS011;4923;52.520;13.494;2022-07-23T11:08:39;2.20;;;1.63;;
9767;SDS011;4923;52.520;13.494;2022-07-23T11:11:26;2.60;;;1.40;;
9767;SDS011;4923;52.520;13.494;2022-07-23T11:14:15;2.73;;;1.60;;
9767;SDS011;4923;52.520;13.494;2022-07-23T11:17:01;8.50;;;1.90;;
9767;SDS011;4923;52.520;13.494;2022-07-23T11:20:18;2.10;;;1.73;;
9767;SDS011;4923;52.520;13.494;2022-07-23T11:23:07;11.63;;;3.20;;
9767;SDS011;4923;52.520;13.494;2022-07-23T11:25:53;2.57;;;1.97;;
9767;SDS011;4923;52.520;13.494;2022-07-23T11:28:40;4.50;;;1.43;;
9767;SDS011;4923;52.520;13.494;2022-07-23T11:31:29;3.07;;;1.40;;
9767;SDS011;4923;52.520;13.494;2022-07-23T11:34:29;3.10;;;1.90;;
9767;SDS011;4923;52.520;13.494;2022-07-23T11:37:27;2.70;;;2.50;;
9767;SDS011;4923;52.520;13.494;2022-07-23T11:40:19;2.10;;;1.60;;
9767;SDS011;4923;52.520;13.494;2022-07-23T11:43:07;8.50;;;1.60;;
9767;SDS011;4923;52.520;13.494;2022-07-23T11:45:57;5.93;;;1.73;;
9767;SDS011;4923;52.520;13.494;2022-07-23T11:49:00;1.97;;;1.83;;
9767;SDS011;4923;52.520;13.494;2022-07-23T11:51:53;3.67;;;1.63;;
9767;SDS011;4923;52.520;13.494;2022-07-23T11:54:51;2.10;;;1.67;;
9767;SDS011;4923;52.520;13.494;2022-07-23T11:57:40;6.83;;;2.20;;
9767;SDS011;4923;52.520;13.494;2022-07-23T12:00:28;3.80;;;1.80;;
9767;SDS011;4923;52.520;13.494;2022-07-23T12:03:15;1.97;;;1.87;;
9767;SDS011;4923;52.520;13.494;2022-07-23T12:06:04;3.07;;;2.07;;
9767;SDS011;4923;52.520;13.494;2022-07-23T12:08:51;8.13;;;1.63;;
9767;SDS011;4923;52.520;13.494;2022-07-23T12:11:38;9.23;;;2.70;;
9767;SDS011;4923;52.520;13.494;2022-07-23T12:14:28;2.83;;;1.77;;
9767;SDS011;4923;52.520;13.494;2022-07-23T12:17:15;7.40;;;1.77;;
9767;SDS011;4923;52.520;13.494;2022-07-23T12:20:03;6.03;;;2.90;;
9767;SDS011;4923;52.520;13.494;2022-07-23T12:22:57;6.03;;;2.20;;
9767;SDS011;4923;52.520;13.494;2022-07-23T12:25:46;3.83;;;2.00;;
9767;SDS011;4923;52.520;13.494;2022-07-23T12:28:35;3.40;;;2.07;;
9767;SDS011;4923;52.520;13.494;2022-07-23T12:31:25;6.70;;;1.90;;
9767;SDS011;4923;52.520;13.494;2022-07-23T12:34:13;9.13;;;2.40;;
9767;SDS011;4923;52.520;13.494;2022-07-23T12:37:01;1.77;;;1.57;;
9767;SDS011;4923;52.520;13.494;2022-07-23T12:39:49;3.63;;;2.30;;
9767;SDS011;4923;52.520;13.494;2022-07-23T12:42:40;4.30;;;1.50;;
9767;SDS011;4923;52.520;13.494;2022-07-23T12:45:29;4.50;;;2.03;;
9767;SDS011;4923;52.520;13.494;2022-07-23T12:48:30;4.40;;;2.10;;
9767;SDS011;4923;52.520;13.494;2022-07-23T12:51:19;3.87;;;2.40;;
9767;SDS011;4923;52.520;13.494;2022-07-23T12:54:08;1.43;;;1.33;;
9767;SDS011;4923;52.520;13.494;2022-07-23T12:56:57;3.13;;;2.27;;
9767;SDS011;4923;52.520;13.494;2022-07-23T12:59:44;6.10;;;2.93;;
9767;SDS011;4923;52.520;13.494;2022-07-23T13:02:44;1.93;;;1.73;;
9767;SDS011;4923;52.520;13.494;2022-07-23T13:05:31;6.53;;;2.27;;
9767;SDS011;4923;52.520;13.494;2022-07-23T13:08:18;3.07;;;1.90;;
9767;SDS011;4923;52.520;13.494;2022-07-23T13:11:05;2.93;;;1.73;;
9767;SDS011;4923;52.520;13.494;2022-07-23T13:13:54;2.00;;;1.80;;
9767;SDS011;4923;52.520;13.494;2022-07-23T13:16:41;8.43;;;3.10;;
9767;SDS011;4923;52.520;13.494;2022-07-23T13:19:28;3.43;;;2.00;;
9767;SDS011;4923;52.520;13.494;2022-07-23T13:22:15;2.10;;;1.90;;
9767;SDS011;4923;52.520;13.494;2022-07-23T13:25:02;1.90;;;1.80;;
9767;SDS011;4923;52.520;13.494;2022-07-23T13:27:50;2.50;;;2.07;;
9767;SDS011;4923;52.520;13.494;2022-07-23T13:30:38;10.03;;;2.00;;
9767;SDS011;4923;52.520;13.494;2022-07-23T13:33:26;4.83;;;2.17;;
9767;SDS011;4923;52.520;13.494;2022-07-23T13:36:13;1.80;;;1.70;;
9767;SDS011;4923;52.520;13.494;2022-07-23T13:39:00;3.70;;;1.80;;
9767;SDS011;4923;52.520;13.494;2022-07-23T13:41:47;2.30;;;1.40;;
9767;SDS011;4923;52.520;13.494;2022-07-23T13:44:34;2.20;;;1.40;;
9767;SDS011;4923;52.520;13.494;2022-07-23T13:47:22;6.13;;;1.90;;
9767;SDS011;4923;52.520;13.494;2022-07-23T13:50:09;2.30;;;1.77;;
9767;SDS011;4923;52.520;13.494;2022-07-23T13:52:56;2.93;;;1.37;;
9767;SDS011;4923;52.520;13.494;2022-07-23T13:55:43;1.60;;;1.50;;
9767;SDS011;4923;52.520;13.494;2022-07-23T13:58:31;4.20;;;1.80;;
9767;SDS011;4923;52.520;13.494;2022-07-23T14:01:17;1.50;;;1.40;;
9767;SDS011;4923;52.520;13.494;2022-07-23T14:04:06;2.20;;;1.47;;
9767;SDS011;4923;52.520;13.494;2022-07-23T14:06:53;2.23;;;1.40;;
9767;SDS011;4923;52.520;13.494;2022-07-23T14:09:40;1.43;;;1.37;;
9767;SDS011;4923;52.520;13.494;2022-07-23T14:12:27;4.43;;;1.93;;
9767;SDS011;4923;52.520;13.494;2022-07-23T14:15:14;4.13;;;1.30;;
9767;SDS011;4923;52.520;13.494;2022-07-23T14:18:01;5.57;;;2.80;;
9767;SDS011;4923;52.520;13.494;2022-07-23T14:20:50;7.70;;;3.53;;
9767;SDS011;4923;52.520;13.494;2022-07-23T14:23:37;1.83;;;1.27;;
9767;SDS011;4923;52.520;13.494;2022-07-23T14:26:24;3.17;;;1.40;;
9767;SDS011;4923;52.520;13.494;2022-07-23T14:29:11;2.50;;;1.30;;
9767;SDS011;4923;52.520;13.494;2022-07-23T14:31:58;3.93;;;1.30;;
9767;SDS011;4923;52.520;13.494;2022-07-23T14:34:45;2.03;;;1.40;;
9767;SDS011;4923;52.520;13.494;2022-07-23T14:37:34;1.30;;;1.27;;
9767;SDS011;4923;52.520;13.494;2022-07-23T14:40:21;6.37;;;1.87;;
9767;SDS011;4923;52.520;13.494;2022-07-23T14:43:08;10.87;;;1.70;;
9767;SDS011;4923;52.520;13.494;2022-07-23T14:45:55;1.90;;;1.30;;
9767;SDS011;4923;52.520;13.494;2022-07-23T14:48:42;2.67;;;1.00;;
9767;SDS011;4923;52.520;13.494;2022-07-23T14:51:32;1.43;;;1.27;;
9767;SDS011;4923;52.520;13.494;2022-07-23T14:54:20;1.10;;;1.00;;
9767;SDS011;4923;52.520;13.494;2022-07-23T14:57:07;5.27;;;1.40;;
9767;SDS011;4923;52.520;13.494;2022-07-23T14:59:54;2.10;;;1.30;;
9767;SDS011;4923;52.520;13.494;2022-07-23T15:02:41;1.03;;;1.03;;
9767;SDS011;4923;52.520;13.494;2022-07-23T15:05:28;1.27;;;1.20;;
9767;SDS011;4923;52.520;13.494;2022-07-23T15:08:15;2.00;;;1.00;;
9767;SDS011;4923;52.520;13.494;2022-07-23T15:11:05;3.47;;;1.40;;
9767;SDS011;4923;52.520;13.494;2022-07-23T15:13:55;0.90;;;0.90;;
9767;SDS011;4923;52.520;13.494;2022-07-23T15:16:42;3.90;;;1.30;;
9767;SDS011;4923;52.520;13.494;2022-07-23T15:19:29;1.30;;;1.20;;
9767;SDS011;4923;52.520;13.494;2022-07-23T15:22:19;4.50;;;1.47;;
9767;SDS011;4923;52.520;13.494;2022-07-23T15:25:07;2.73;;;1.30;;
9767;SDS011;4923;52.520;13.494;2022-07-23T15:27:55;0.80;;;0.80;;
9767;SDS011;4923;52.520;13.494;2022-07-23T15:30:43;3.93;;;0.90;;
9767;SDS011;4923;52.520;13.494;2022-07-23T15:33:33;3.83;;;0.90;;
9767;SDS011;4923;52.520;13.494;2022-07-23T15:36:20;1.27;;;1.10;;
9767;SDS011;4923;52.520;13.494;2022-07-23T15:39:07;23.23;;;12.10;;
9767;SDS011;4923;52.520;13.494;2022-07-23T15:41:57;1.17;;;0.90;;
9767;SDS011;4923;52.520;13.494;2022-07-23T15:44:45;4.17;;;1.33;;
9767;SDS011;4923;52.520;13.494;2022-07-23T15:47:33;1.67;;;1.00;;
9767;SDS011;4923;52.520;13.494;2022-07-23T15:50:21;7.77;;;0.90;;
9767;SDS011;4923;52.520;13.494;2022-07-23T15:53:08;3.23;;;0.80;;
9767;SDS011;4923;52.520;13.494;2022-07-23T15:55:55;1.07;;;0.80;;
9767;SDS011;4923;52.520;13.494;2022-07-23T15:58:42;0.60;;;0.60;;
9767;SDS011;4923;52.520;13.494;2022-07-23T16:01:31;1.90;;;0.97;;
9767;SDS011;4923;52.520;13.494;2022-07-23T16:04:18;0.70;;;0.70;;
9767;SDS011;4923;52.520;13.494;2022-07-23T16:07:05;2.20;;;1.27;;
9767;SDS011;4923;52.520;13.494;2022-07-23T16:09:52;0.60;;;0.60;;
9767;SDS011;4923;52.520;13.494;2022-07-23T16:12:40;2.40;;;0.70;;
9767;SDS011;4923;52.520;13.494;2022-07-23T16:15:27;1.40;;;0.83;;
9767;SDS011;4923;52.520;13.494;2022-07-23T16:18:15;1.10;;;1.10;;
9767;SDS011;4923;52.520;13.494;2022-07-23T16:21:02;1.20;;;1.10;;
9767;SDS011;4923;52.520;13.494;2022-07-23T16:23:50;2.40;;;0.90;;
9767;SDS011;4923;52.520;13.494;2022-07-23T16:26:37;2.40;;;1.00;;
9767;SDS011;4923;52.520;13.494;2022-07-23T16:29:24;1.03;;;0.80;;
9767;SDS011;4923;52.520;13.494;2022-07-23T16:32:11;0.87;;;0.70;;
9767;SDS011;4923;52.520;13.494;2022-07-23T16:34:59;1.23;;;0.90;;
9767;SDS011;4923;52.520;13.494;2022-07-23T16:37:46;1.33;;;0.80;;
9767;SDS011;4923;52.520;13.494;2022-07-23T16:40:33;2.30;;;0.80;;
9767;SDS011;4923;52.520;13.494;2022-07-23T16:43:20;2.43;;;0.83;;
9767;SDS011;4923;52.520;13.494;2022-07-23T16:46:07;1.57;;;0.90;;
9767;SDS011;4923;52.520;13.494;2022-07-23T16:48:54;0.90;;;0.90;;
9767;SDS011;4923;52.520;13.494;2022-07-23T16:51:43;1.17;;;0.73;;
9767;SDS011;4923;52.520;13.494;2022-07-23T16:54:30;1.50;;;0.87;;
9767;SDS011;4923;52.520;13.494;2022-07-23T16:57:17;1.13;;;0.80;;
9767;SDS011;4923;52.520;13.494;2022-07-23T17:00:05;0.63;;;0.63;;
9767;SDS011;4923;52.520;13.494;2022-07-23T17:02:53;0.57;;;0.57;;
9767;SDS011;4923;52.520;13.494;2022-07-23T17:05:42;1.43;;;0.70;;
9767;SDS011;4923;52.520;13.494;2022-07-23T17:08:31;1.43;;;0.83;;
9767;SDS011;4923;52.520;13.494;2022-07-23T17:11:18;0.80;;;0.70;;